Time;durP1;ratioP1;P1;durP2;ratioP2;P2;SDS_P1;SDS_P2;PMS_P1;PMS_P2;Temp;Humidity;BMP_temperature;BMP_pressure;BME280_temperature;BME280_humidity;BME280_pressure;Samples;Min_cycle;Max_cycle;Signal;HPM_P1;HPM_P2
2021/06/21 00:01:24;;;;;;;4.97;4.40;;;;;;;22.60;55.21;99412.50;2121899;82;21018;-77
2021/06/21 00:04:25;;;;;;;5.00;4.53;;;;;;;22.58;55.37;99411.13;2121597;82;21593;-76
2021/06/21 00:07:27;;;;;;;7.40;4.45;;;;;;;22.60;55.26;99410.34;2117054;82;21090;-77
2021/06/21 00:10:28;;;;;;;6.60;4.55;;;;;;;22.60;55.36;99410.34;2120416;82;21513;-75
2021/06/21 00:13:30;;;;;;;5.05;4.17;;;;;;;22.64;55.59;99414.16;2089009;82;20983;-76
2021/06/21 00:16:32;;;;;;;7.03;4.40;;;;;;;22.65;55.73;99419.83;2081410;83;21433;-76
2021/06/21 00:19:34;;;;;;;5.97;4.92;;;;;;;22.68;55.65;99406.33;2082087;83;21474;-76
2021/06/21 00:22:37;;;;;;;5.83;4.58;;;;;;;22.68;55.62;99409.84;2087123;83;20993;-76
2021/06/21 00:25:39;;;;;;;6.17;4.95;;;;;;;22.66;56.19;99399.82;2084414;83;21057;-76
2021/06/21 00:28:40;;;;;;;5.97;4.85;;;;;;;22.63;56.00;99397.64;2083614;83;21034;-75
2021/06/21 00:31:42;;;;;;;10.10;5.35;;;;;;;22.60;55.99;99393.58;2078203;83;21648;-76
2021/06/21 00:34:45;;;;;;;6.25;5.00;;;;;;;22.56;56.04;99390.33;2078523;83;20959;-75
2021/06/21 00:37:47;;;;;;;6.00;5.17;;;;;;;22.51;56.38;99382.19;2084595;83;21026;-75
2021/06/21 00:40:49;;;;;;;8.43;5.08;;;;;;;22.46;56.81;99376.75;2088570;83;21061;-76
2021/06/21 00:43:51;;;;;;;5.15;4.65;;;;;;;22.43;57.04;99373.23;2077507;83;21160;-75
2021/06/21 00:46:53;;;;;;;7.55;5.10;;;;;;;22.44;56.89;99364.03;2081365;83;21088;-75
2021/06/21 00:49:55;;;;;;;9.40;5.25;;;;;;;22.43;57.23;99361.06;2080902;83;21408;-76
2021/06/21 00:52:59;;;;;;;6.37;5.50;;;;;;;22.42;57.15;99360.26;2079992;83;21010;-76
2021/06/21 00:56:01;;;;;;;6.30;5.28;;;;;;;22.43;57.30;99363.77;2078918;83;21561;-75
2021/06/21 00:59:04;;;;;;;7.83;5.65;;;;;;;22.41;57.40;99361.86;2067487;85;21047;-74
2021/06/21 01:02:10;;;;;;;6.45;5.28;;;;;;;22.42;57.92;99351.34;2090425;83;21601;-77
2021/06/21 01:05:16;;;;;;;7.20;5.45;;;;;;;22.41;57.52;99364.02;2085895;83;20978;-75
2021/06/21 01:08:18;;;;;;;6.15;5.45;;;;;;;22.41;57.70;99369.97;2083384;83;21010;-76
2021/06/21 01:11:19;;;;;;;5.85;5.35;;;;;;;22.37;57.73;99362.92;2083458;83;21045;-76
2021/06/21 01:14:43;;;;;;;7.67;5.47;;;;;;;22.32;57.75;99365.05;2082420;83;21041;-76
2021/06/21 01:18:05;;;;;;;7.95;5.92;;;;;;;22.30;58.02;99357.77;2070582;83;21056;-75
2021/06/21 01:21:27;;;;;;;10.82;5.80;;;;;;;22.29;57.98;99365.58;2087024;83;21456;-75
2021/06/21 01:25:01;;;;;;;11.28;5.55;;;;;;;22.28;58.27;99376.13;2027810;83;21116;-76
2021/06/21 01:28:41;;;;;;;10.55;5.97;;;;;;;22.23;58.61;99374.73;2083577;83;21002;-76
2021/06/21 01:31:55;;;;;;;;;;;;;;;22.17;58.67;99375.77;2083867;83;21055;-76
2021/06/21 01:34:59;;;;;;;7.45;6.55;;;;;;;22.08;59.04;99380.03;2087656;83;20180;-77
2021/06/21 01:38:15;;;;;;;7.10;5.80;;;;;;;22.02;59.14;99387.80;2080770;83;21081;-76
2021/06/21 01:41:25;;;;;;;8.50;5.50;;;;;;;21.96;59.00;99386.14;2076895;83;21128;-75
2021/06/21 01:44:30;;;;;;;6.80;6.07;;;;;;;21.88;59.07;99381.52;2082463;83;21060;-77
2021/06/21 01:47:34;;;;;;;6.97;6.28;;;;;;;21.84;59.28;99387.14;2076081;83;21526;-77
2021/06/21 01:50:39;;;;;;;10.60;7.05;;;;;;;21.77;59.42;99387.91;2087387;83;20998;-77
2021/06/21 01:53:41;;;;;;;7.50;6.75;;;;;;;21.67;59.42;99387.81;2075997;83;21050;-77
2021/06/21 01:56:46;;;;;;;7.00;6.05;;;;;;;21.62;59.49;99382.37;2083720;83;21063;-76
2021/06/21 01:59:51;;;;;;;7.35;6.60;;;;;;;21.57;59.55;99385.02;2082091;83;21057;-76
2021/06/21 02:02:55;;;;;;;9.08;6.80;;;;;;;21.44;59.74;99388.42;2082368;83;20990;-76
2021/06/21 02:05:58;;;;;;;8.28;6.58;;;;;;;21.38;59.93;99393.50;2071840;83;20986;-76
2021/06/21 02:09:04;;;;;;;9.05;6.53;;;;;;;21.37;60.06;99399.98;2083509;83;20998;-77
2021/06/21 02:12:07;;;;;;;10.20;6.33;;;;;;;21.33;60.14;99400.16;2082613;83;21041;-77
2021/06/21 02:15:09;;;;;;;9.53;6.80;;;;;;;21.20;60.23;99401.39;2092599;83;21037;-78
2021/06/21 02:18:13;;;;;;;8.00;6.47;;;;;;;21.12;60.38;99407.75;2083923;83;21023;-76
2021/06/21 02:21:16;;;;;;;9.15;6.78;;;;;;;20.90;60.61;99399.70;2077064;83;20999;-77
2021/06/21 02:24:19;;;;;;;7.53;6.50;;;;;;;20.54;61.12;99399.25;2075981;83;20987;-77
2021/06/21 02:27:21;;;;;;;8.15;6.60;;;;;;;20.20;61.67;99389.05;2089053;83;21029;-76
2021/06/21 02:30:23;;;;;;;7.72;6.70;;;;;;;19.98;62.24;99384.95;2089806;83;21568;-76
2021/06/21 02:33:26;;;;;;;8.78;7.50;;;;;;;19.91;62.69;99391.87;2086304;83;20990;-76
2021/06/21 02:36:27;;;;;;;12.07;7.55;;;;;;;19.87;63.02;99384.78;2074432;83;21623;-76
2021/06/21 02:39:29;;;;;;;12.47;7.70;;;;;;;19.82;63.47;99385.23;2086019;83;20997;-76
2021/06/21 02:42:31;;;;;;;13.58;7.78;;;;;;;19.70;63.78;99384.78;2083210;83;20998;-77
2021/06/21 02:45:34;;;;;;;9.13;7.58;;;;;;;19.60;64.18;99378.42;2082981;83;21581;-76
2021/06/21 02:48:35;;;;;;;10.63;8.35;;;;;;;19.46;64.30;99375.22;2080374;83;21008;-76
2021/06/21 02:51:57;;;;;;;10.43;8.70;;;;;;;19.32;64.89;99373.90;2085491;83;21002;-77
2021/06/21 02:55:13;;;;;;;11.10;8.30;;;;;;;19.12;65.10;99377.00;2080634;83;21034;-77
2021/06/21 02:58:27;;;;;;;10.85;8.18;;;;;;;18.95;65.25;99375.11;2082821;83;21128;-75
2021/06/21 03:01:29;;;;;;;8.35;7.55;;;;;;;18.95;65.61;99375.61;2079886;83;20990;-77
2021/06/21 03:04:31;;;;;;;9.13;8.18;;;;;;;19.01;65.54;99382.21;2086535;83;21034;-76
2021/06/21 03:07:34;;;;;;;11.15;9.23;;;;;;;19.08;65.51;99383.40;2064041;84;21038;-76
2021/06/21 03:10:38;;;;;;;10.93;8.90;;;;;;;19.10;65.40;99381.30;2078552;83;20951;-76
2021/06/21 03:13:45;;;;;;;12.30;8.45;;;;;;;19.14;65.75;99383.78;2078843;83;21067;-76
2021/06/21 03:16:47;;;;;;;9.48;8.33;;;;;;;19.10;65.76;99383.98;2082338;83;21605;-76
2021/06/21 03:19:50;;;;;;;10.75;8.93;;;;;;;19.03;66.12;99381.95;2084871;83;21520;-75
2021/06/21 03:22:58;;;;;;;9.85;8.90;;;;;;;18.95;66.35;99384.52;2080484;83;21002;-77
2021/06/21 03:26:04;;;;;;;9.40;8.53;;;;;;;19.00;66.52;99386.47;2077899;83;21104;-78
2021/06/21 03:29:19;;;;;;;11.43;8.93;;;;;;;19.20;66.71;99388.72;2088704;83;21722;-76
2021/06/21 03:32:31;;;;;;;13.38;8.78;;;;;;;19.56;66.78;99384.79;2073760;83;21112;-76
2021/06/21 03:35:33;;;;;;;9.08;8.03;;;;;;;19.98;66.44;99386.30;2083027;83;21588;-77
2021/06/21 03:38:34;;;;;;;15.18;9.43;;;;;;;20.33;66.07;99394.91;2079989;83;21339;-75
2021/06/21 03:41:37;;;;;;;9.73;8.60;;;;;;;20.64;65.76;99402.59;2084414;83;21033;-76
2021/06/21 03:44:38;;;;;;;11.00;8.45;;;;;;;20.92;65.40;99402.94;2084536;83;21716;-75
2021/06/21 03:47:41;;;;;;;9.20;8.30;;;;;;;21.25;65.02;99400.61;2083480;83;21450;-77
2021/06/21 03:50:43;;;;;;;11.08;8.75;;;;;;;21.48;64.46;99402.22;2086625;83;21003;-78
2021/06/21 03:53:45;;;;;;;14.03;9.00;;;;;;;21.71;64.14;99409.20;2083996;83;21013;-76
2021/06/21 03:56:46;;;;;;;11.15;8.70;;;;;;;22.01;63.90;99403.73;2079341;83;21021;-76
2021/06/21 03:59:48;;;;;;;14.55;8.45;;;;;;;22.34;63.47;99404.80;2083087;83;21505;-76
2021/06/21 04:02:51;;;;;;;10.60;8.10;;;;;;;22.78;62.87;99395.02;2077197;83;21060;-77
2021/06/21 04:05:52;;;;;;;10.85;8.43;;;;;;;22.94;62.13;99394.52;2088872;83;20997;-77
2021/06/21 04:08:54;;;;;;;9.80;8.55;;;;;;;23.30;62.11;99389.78;2080691;83;20986;-77
2021/06/21 04:11:55;;;;;;;11.18;8.38;;;;;;;23.70;61.26;99392.54;2080597;83;21511;-77
2021/06/21 04:14:57;;;;;;;12.93;9.00;;;;;;;23.98;60.93;99387.66;2090021;83;20999;-82
2021/06/21 04:18:00;;;;;;;10.93;8.28;;;;;;;24.46;60.39;99388.67;2104732;83;21021;-82
2021/06/21 04:21:02;;;;;;;9.08;7.72;;;;;;;25.00;59.72;99402.30;2101733;82;21097;-82
2021/06/21 04:24:04;;;;;;;9.58;8.05;;;;;;;25.57;59.02;99410.12;2103989;83;21505;-81
2021/06/21 04:27:06;;;;;;;13.25;8.70;;;;;;;26.15;58.03;99407.47;2103881;83;20973;-84
2021/06/21 04:30:11;;;;;;;12.28;8.53;;;;;;;26.50;56.65;99405.49;2105276;82;21046;-83
2021/06/21 04:33:13;;;;;;;14.45;8.65;;;;;;;26.53;56.12;99396.22;2101500;83;21051;-83
2021/06/21 04:36:14;;;;;;;16.27;9.65;;;;;;;26.33;55.26;99390.99;2093001;82;21045;-83
2021/06/21 04:39:15;;;;;;;9.18;8.28;;;;;;;26.04;54.95;99382.84;2100349;83;21139;-83
2021/06/21 04:42:17;;;;;;;11.33;8.18;;;;;;;25.71;55.10;99384.74;2101401;83;21902;-83
2021/06/21 04:45:19;;;;;;;11.20;9.38;;;;;;;25.66;55.46;99386.14;2102509;83;20985;-81
2021/06/21 04:48:20;;;;;;;9.40;7.78;;;;;;;25.71;55.23;99392.09;2102201;83;21068;-79
2021/06/21 04:51:22;;;;;;;8.88;7.97;;;;;;;25.87;55.35;99391.42;2094784;83;21525;-80
2021/06/21 04:54:23;;;;;;;13.98;8.60;;;;;;;26.08;55.10;99392.06;2108538;83;20985;-80
2021/06/21 04:57:25;;;;;;;11.83;8.43;;;;;;;26.42;54.92;99400.69;2106162;83;20978;-81
2021/06/21 05:00:26;;;;;;;9.93;8.25;;;;;;;26.63;53.79;99398.00;2101966;83;21032;-78
2021/06/21 05:03:28;;;;;;;10.35;9.05;;;;;;;26.54;54.48;99414.71;2104535;83;21040;-79
2021/06/21 05:06:29;;;;;;;9.93;8.48;;;;;;;26.95;54.25;99417.76;2099784;83;21120;-79
2021/06/21 05:09:31;;;;;;;10.00;8.70;;;;;;;27.08;53.25;99406.69;2107656;83;21057;-80
2021/06/21 05:12:33;;;;;;;12.88;8.30;;;;;;;27.11;53.00;99408.81;2095234;83;21053;-80
2021/06/21 05:15:34;;;;;;;10.65;8.40;;;;;;;27.15;52.78;99400.89;2092308;83;21022;-82
2021/06/21 05:18:36;;;;;;;8.55;7.50;;;;;;;27.15;52.61;99392.16;2093745;83;21041;-82
2021/06/21 05:21:37;;;;;;;13.13;8.70;;;;;;;27.11;52.41;99386.23;2090721;83;21033;-79
2021/06/21 05:24:39;;;;;;;9.60;8.10;;;;;;;27.14;52.97;99382.36;2092376;83;20971;-81
2021/06/21 05:27:41;;;;;;;11.45;8.10;;;;;;;27.43;52.34;99377.36;2091128;83;21477;-79
2021/06/21 05:30:42;;;;;;;10.28;8.55;;;;;;;27.59;52.43;99370.53;2089428;83;21493;-78
2021/06/21 05:33:47;;;;;;;13.32;9.90;;;;;;;27.74;52.02;99375.50;2091429;83;21054;-80
2021/06/21 05:36:49;;;;;;;12.82;8.83;;;;;;;27.93;51.26;99372.17;2093504;83;21053;-81
2021/06/21 05:39:50;;;;;;;11.15;8.23;;;;;;;27.95;51.42;99375.42;2095590;83;21087;-78
2021/06/21 05:42:52;;;;;;;10.20;7.85;;;;;;;28.07;51.70;99367.58;2090224;83;21030;-79
2021/06/21 05:45:54;;;;;;;11.50;8.20;;;;;;;28.43;51.30;99368.27;2095288;83;21064;-80
2021/06/21 05:48:55;;;;;;;10.38;8.08;;;;;;;28.33;50.99;99365.73;2089379;83;21002;-81
2021/06/21 05:51:57;;;;;;;9.65;8.70;;;;;;;28.42;50.16;99357.65;2093341;83;21049;-80
2021/06/21 05:54:59;;;;;;;9.78;7.97;;;;;;;28.57;50.68;99364.17;2100600;83;20958;-80
2021/06/21 05:58:01;;;;;;;10.38;8.33;;;;;;;28.73;49.96;99360.58;2087363;83;20946;-79
2021/06/21 06:01:02;;;;;;;11.75;8.73;;;;;;;28.74;49.91;99356.73;2090489;83;21069;-79
2021/06/21 06:04:04;;;;;;;13.48;8.13;;;;;;;28.87;49.02;99342.81;2091574;83;21105;-80
2021/06/21 06:07:05;;;;;;;13.80;8.48;;;;;;;28.89;49.17;99335.94;2089793;83;21038;-80
2021/06/21 06:10:08;;;;;;;11.00;8.83;;;;;;;28.74;48.29;99332.16;2091561;83;21038;-80
2021/06/21 06:13:10;;;;;;;10.90;7.97;;;;;;;28.37;48.59;99327.98;2090919;82;21081;-79
2021/06/21 06:16:11;;;;;;;12.47;9.18;;;;;;;28.20;49.68;99331.07;2082875;83;21128;-81
2021/06/21 06:19:12;;;;;;;11.43;9.15;;;;;;;28.22;50.14;99331.03;2078784;83;21833;-81
2021/06/21 06:22:16;;;;;;;11.83;9.40;;;;;;;28.23;49.50;99327.73;2078704;84;21069;-80
2021/06/21 06:25:18;;;;;;;12.53;9.28;;;;;;;28.11;50.30;99321.42;2075192;83;21145;-79
2021/06/21 06:28:19;;;;;;;12.58;9.70;;;;;;;27.83;50.44;99326.04;2088200;83;21464;-79
2021/06/21 06:31:22;;;;;;;13.25;10.08;;;;;;;27.86;50.64;99337.14;2083669;83;21061;-80
2021/06/21 06:34:24;;;;;;;18.77;10.63;;;;;;;28.14;50.68;99346.72;2065941;83;20990;-79
2021/06/21 06:37:25;;;;;;;11.38;10.13;;;;;;;28.31;50.09;99348.30;2085243;83;20995;-80
2021/06/21 06:40:27;;;;;;;14.33;9.50;;;;;;;28.18;50.16;99355.91;2079432;83;21077;-77
2021/06/21 06:43:28;;;;;;;12.50;10.23;;;;;;;28.26;50.31;99342.93;2080793;83;21026;-80
2021/06/21 06:46:30;;;;;;;15.75;9.90;;;;;;;28.50;50.12;99359.70;2080862;83;21049;-82
2021/06/21 06:49:32;;;;;;;12.95;9.98;;;;;;;28.83;50.13;99343.97;2083505;83;20986;-81
2021/06/21 06:52:34;;;;;;;11.83;9.65;;;;;;;28.99;49.22;99347.98;2084655;83;21006;-81
2021/06/21 06:58:56;;;;;;;13.05;9.95;;;;;;;29.34;49.54;99350.21;2079633;83;20984;-79
2021/06/21 07:02:01;;;;;;;15.20;9.88;;;;;;;29.39;48.83;99346.80;2078057;83;21555;-81
2021/06/21 07:05:06;;;;;;;10.65;8.55;;;;;;;29.43;48.74;99354.64;2078557;83;21498;-79
2021/06/21 07:08:07;;;;;;;9.80;8.80;;;;;;;29.55;48.57;99344.51;2078378;83;21053;-76
2021/06/21 07:11:09;;;;;;;15.35;10.55;;;;;;;29.64;48.70;99348.69;2080403;83;21045;-78
2021/06/21 07:14:11;;;;;;;12.35;9.18;;;;;;;29.52;48.23;99346.50;2087348;83;21094;-78
2021/06/21 07:17:12;;;;;;;18.92;8.98;;;;;;;29.70;48.44;99358.38;2100293;82;21052;-79
2021/06/21 07:20:14;;;;;;;12.73;9.73;;;;;;;29.98;48.64;99349.44;2104093;83;20988;-81
2021/06/21 07:23:19;;;;;;;11.20;9.10;;;;;;;30.07;47.73;99342.64;2096485;83;21535;-80
2021/06/21 07:26:21;;;;;;;19.37;9.90;;;;;;;30.31;47.95;99344.47;2105418;83;21496;-78
2021/06/21 07:29:23;;;;;;;13.80;10.48;;;;;;;30.47;47.82;99350.89;2101008;83;21024;-75
2021/06/21 07:32:24;;;;;;;11.73;9.35;;;;;;;30.50;47.04;99332.46;2103162;83;21062;-75
2021/06/21 07:35:26;;;;;;;9.83;8.70;;;;;;;30.70;47.61;99346.11;2102981;82;21099;-75
2021/06/21 07:38:28;;;;;;;13.53;9.28;;;;;;;30.70;47.61;99346.11;2100140;81;21040;-76
2021/06/21 07:41:29;;;;;;;12.75;9.93;;;;;;;30.78;47.33;99339.84;2105865;82;21032;-75
2021/06/21 07:44:31;;;;;;;15.48;9.85;;;;;;;30.71;46.23;99338.92;2099246;83;21102;-76
2021/06/21 07:47:33;;;;;;;13.65;9.45;;;;;;;30.53;46.81;99304.45;2098333;83;21687;-73
2021/06/21 07:50:35;;;;;;;17.10;9.28;;;;;;;30.99;46.57;99338.67;2103135;83;21033;-74
2021/06/21 07:53:38;;;;;;;9.55;8.50;;;;;;;30.97;45.93;99341.75;2110922;83;20997;-76
2021/06/21 07:56:39;;;;;;;11.88;10.23;;;;;;;30.92;45.89;99347.95;2102711;82;21009;-76
2021/06/21 07:59:41;;;;;;;14.03;10.00;;;;;;;31.07;46.13;99340.61;2104289;82;21000;-75
2021/06/21 08:02:43;;;;;;;11.93;9.05;;;;;;;31.10;45.78;99335.86;2100180;83;21526;-75
2021/06/21 08:05:48;;;;;;;14.90;9.38;;;;;;;31.31;46.20;99340.67;2104086;81;21032;-76
2021/06/21 08:08:48;;;;;;;12.47;9.28;;;;;;;31.41;46.00;99337.08;2104315;83;21013;-75
2021/06/21 08:11:49;;;;;;;10.63;9.53;;;;;;;31.60;45.69;99342.22;2100174;83;21067;-75
2021/06/21 08:14:51;;;;;;;15.70;8.43;;;;;;;31.77;44.87;99340.56;2093568;83;21121;-74
2021/06/21 08:17:52;;;;;;;10.75;8.70;;;;;;;31.92;43.92;99335.94;2082400;83;22059;-74
2021/06/21 08:20:54;;;;;;;13.50;8.78;;;;;;;32.13;44.00;99331.34;2083712;83;21061;-73
2021/06/21 08:23:57;;;;;;;14.47;9.28;;;;;;;32.13;44.15;99328.61;2079987;83;21051;-75
2021/06/21 08:27:02;;;;;;;13.98;9.20;;;;;;;32.33;42.98;99320.77;2088531;83;21085;-73
2021/06/21 08:30:08;;;;;;;14.80;10.10;;;;;;;32.47;43.60;99329.59;2076149;83;21112;-74
2021/06/21 08:33:10;;;;;;;16.55;9.40;;;;;;;32.53;43.33;99321.97;2081313;83;21006;-73
2021/06/21 08:36:11;;;;;;;12.18;9.10;;;;;;;32.49;43.32;99324.55;2083944;83;21010;-74
2021/06/21 08:39:13;;;;;;;12.10;9.15;;;;;;;32.59;42.95;99320.06;2087491;83;20992;-74
2021/06/21 08:42:15;;;;;;;10.00;8.85;;;;;;;32.75;43.28;99323.61;2075950;83;21007;-73
2021/06/21 08:45:18;;;;;;;10.50;8.23;;;;;;;33.01;42.27;99324.23;2081012;83;21013;-73
2021/06/21 08:48:20;;;;;;;9.73;8.73;;;;;;;32.96;42.51;99318.91;2068412;83;21426;-74
2021/06/21 08:51:22;;;;;;;9.85;8.85;;;;;;;33.23;42.52;99322.28;2087596;83;21522;-73
2021/06/21 08:54:24;;;;;;;9.15;8.30;;;;;;;33.60;42.07;99319.69;2076329;83;21014;-73
2021/06/21 08:57:26;;;;;;;11.85;8.88;;;;;;;33.78;40.68;99312.83;2079399;83;21530;-74
2021/06/21 09:00:27;;;;;;;9.83;8.60;;;;;;;33.61;40.40;99308.91;2079178;83;21480;-74
2021/06/21 09:03:32;;;;;;;8.75;7.78;;;;;;;33.72;40.35;99316.16;2081357;83;21066;-74
2021/06/21 09:06:40;;;;;;;12.75;7.70;;;;;;;33.61;40.11;99315.78;2080142;83;21053;-74
2021/06/21 09:09:41;;;;;;;9.70;7.60;;;;;;;33.63;39.91;99321.75;2074448;83;20990;-74
2021/06/21 09:12:43;;;;;;;12.23;8.50;;;;;;;33.55;39.89;99319.31;2085743;83;21018;-75
2021/06/21 09:15:54;;;;;;;10.10;7.17;;;;;;;33.55;39.37;99309.70;2083709;83;21129;-75
2021/06/21 09:19:01;;;;;;;8.30;7.42;;;;;;;33.58;38.04;99311.77;2075469;83;20963;-75
2021/06/21 09:22:03;;;;;;;7.90;7.05;;;;;;;33.36;38.65;99304.67;2086276;83;21072;-74
2021/06/21 09:25:25;;;;;;;7.90;7.10;;;;;;;33.21;37.86;99316.31;2082853;83;21089;-74
2021/06/21 09:28:35;;;;;;;9.15;7.78;;;;;;;33.14;38.47;99309.17;2089244;83;21041;-73
2021/06/21 09:31:57;;;;;;;9.55;8.43;;;;;;;33.13;38.28;99308.37;2082949;83;21068;-74
2021/06/21 09:34:59;;;;;;;11.00;8.08;;;;;;;33.25;39.00;99307.61;2081751;83;21114;-75
2021/06/21 09:38:05;;;;;;;7.47;6.62;;;;;;;33.39;39.79;99302.62;2079298;83;20990;-74
2021/06/21 09:41:06;;;;;;;7.80;6.67;;;;;;;33.48;38.00;99306.10;2085826;83;21568;-77
2021/06/21 09:44:08;;;;;;;7.72;6.50;;;;;;;33.87;37.21;99309.43;2079347;83;21021;-74
2021/06/21 09:47:24;;;;;;;10.82;7.42;;;;;;;34.17;37.44;99287.80;2080414;83;21801;-74
2021/06/21 09:50:28;;;;;;;7.90;6.42;;;;;;;34.39;36.89;99292.02;2069845;83;21035;-75
2021/06/21 09:53:31;;;;;;;8.18;6.30;;;;;;;34.52;37.42;99288.91;2032050;86;21024;-76
2021/06/21 09:56:43;;;;;;;8.20;6.60;;;;;;;34.44;35.95;99286.26;2081520;83;21057;-76
2021/06/21 09:59:48;;;;;;;10.35;6.95;;;;;;;34.25;35.13;99286.88;2081602;83;21037;-75
2021/06/21 10:03:10;;;;;;;10.03;6.25;;;;;;;34.22;35.97;99287.56;2087308;83;21081;-75
2021/06/21 10:06:14;;;;;;;12.23;7.20;;;;;;;34.49;35.07;99282.69;2076878;83;21523;-78
2021/06/21 10:09:15;;;;;;;7.53;6.62;;;;;;;34.59;35.73;99273.20;2081928;83;20982;-74
2021/06/21 10:12:23;;;;;;;8.15;7.35;;;;;;;34.62;35.50;99273.08;2082404;83;21429;-77
2021/06/21 10:15:25;;;;;;;10.35;7.15;;;;;;;34.64;36.62;99272.95;2081106;83;21033;-76
2021/06/21 10:18:27;;;;;;;9.25;7.97;;;;;;;34.95;35.59;99270.91;2088365;83;21111;-76
2021/06/21 10:21:30;;;;;;;9.68;7.25;;;;;;;35.09;35.77;99269.74;2090772;83;21077;-76
2021/06/21 10:24:33;;;;;;;8.53;7.55;;;;;;;35.13;35.61;99260.98;2088457;83;21092;-76
2021/06/21 10:27:44;;;;;;;11.80;6.72;;;;;;;34.83;35.38;99257.16;2090940;83;21094;-76
2021/06/21 10:30:46;;;;;;;9.20;7.62;;;;;;;34.72;35.04;99258.25;2090098;83;21021;-77
2021/06/21 10:33:49;;;;;;;9.60;7.00;;;;;;;34.27;35.57;99248.22;2081910;83;21020;-76
2021/06/21 10:36:56;;;;;;;11.05;7.72;;;;;;;34.05;36.59;99250.88;2085716;83;21054;-77
2021/06/21 10:40:10;;;;;;;10.55;6.83;;;;;;;34.04;36.07;99243.77;2086506;83;21028;-76
2021/06/21 10:43:11;;;;;;;12.20;6.33;;;;;;;34.28;35.65;99242.13;2085628;83;21053;-76
2021/06/21 10:46:23;;;;;;;8.63;7.22;;;;;;;34.07;35.02;99238.95;2083441;83;21473;-76
2021/06/21 10:49:31;;;;;;;8.55;6.28;;;;;;;34.35;35.58;99240.41;2086830;83;21541;-75
2021/06/21 10:52:52;;;;;;;7.33;6.58;;;;;;;34.77;35.00;99231.01;2090635;83;21520;-74
2021/06/21 10:55:54;;;;;;;8.75;7.10;;;;;;;35.00;34.17;99235.38;2051975;85;21044;-76
2021/06/21 10:59:13;;;;;;;7.72;6.97;;;;;;;34.62;34.37;99235.31;2079119;83;21054;-74
2021/06/21 11:02:37;;;;;;;10.05;6.40;;;;;;;34.28;34.87;99230.55;2090847;83;21699;-74
2021/06/21 11:05:42;;;;;;;9.63;6.72;;;;;;;34.12;34.41;99224.94;2090704;83;21018;-75
2021/06/21 11:08:50;;;;;;;7.47;6.08;;;;;;;34.07;35.38;99221.06;2088386;83;21067;-76
2021/06/21 11:11:53;;;;;;;8.08;5.90;;;;;;;33.96;33.85;99210.27;2090812;83;20950;-75
2021/06/21 11:15:14;;;;;;;9.60;6.67;;;;;;;33.99;34.22;99204.65;2086211;83;21306;-75
2021/06/21 11:18:25;;;;;;;5.85;5.00;;;;;;;34.11;34.33;99207.41;2107239;83;20962;-74
2021/06/21 11:21:26;;;;;;;12.60;4.72;;;;;;;34.36;32.41;99202.08;2091655;83;21010;-75
2021/06/21 11:24:43;;;;;;;6.72;4.55;;;;;;;34.79;32.89;99197.83;2105893;83;21650;-77
2021/06/21 11:27:44;;;;;;;5.70;4.87;;;;;;;35.10;31.73;99194.16;2106645;83;21624;-77
2021/06/21 11:30:47;;;;;;;6.87;5.25;;;;;;;35.19;31.37;99206.61;2098132;83;21130;-74
2021/06/21 11:33:59;;;;;;;5.37;4.87;;;;;;;35.13;31.41;99207.23;2104353;83;21065;-76
2021/06/21 11:37:00;;;;;;;6.60;4.53;;;;;;;34.91;30.44;99201.68;2103208;82;21021;-75
2021/06/21 11:40:26;;;;;;;6.78;4.72;;;;;;;35.07;31.02;99201.17;2104654;83;21105;-79
2021/06/21 11:43:32;;;;;;;6.22;4.22;;;;;;;35.28;31.09;99202.88;2103572;82;21074;-78
2021/06/21 11:46:41;;;;;;;4.47;3.75;;;;;;;35.18;29.19;99205.59;2097924;83;21025;-76
2021/06/21 11:49:47;;;;;;;;;;;;;;;35.09;27.94;99196.12;2106742;83;21020;-76
2021/06/21 11:52:48;;;;;;;8.15;4.85;;;;;;;35.20;29.04;99197.20;2101839;83;20113;-76
2021/06/21 11:55:49;;;;;;;6.17;4.92;;;;;;;35.33;30.15;99192.98;2104257;83;20985;-76
2021/06/21 11:58:53;;;;;;;7.10;5.12;;;;;;;35.46;30.24;99188.41;2104411;83;21013;-76
2021/06/21 12:02:09;;;;;;;6.35;4.45;;;;;;;35.57;28.98;99179.05;2105408;83;23632;-76
2021/06/21 12:05:17;;;;;;;6.05;5.37;;;;;;;35.55;29.34;99177.77;2107260;82;21086;-75
2021/06/21 12:08:19;;;;;;;7.08;5.22;;;;;;;35.03;29.94;99181.77;2108461;82;21067;-75
2021/06/21 12:11:27;;;;;;;6.90;4.85;;;;;;;34.55;30.59;99176.70;2099081;83;21489;-76
2021/06/21 12:14:29;;;;;;;8.75;5.08;;;;;;;34.27;30.47;99168.39;2103798;83;21013;-74
2021/06/21 12:17:33;;;;;;;8.78;5.70;;;;;;;33.81;30.85;99160.84;2082910;83;21706;-75
2021/06/21 12:20:36;;;;;;;6.67;4.92;;;;;;;33.67;30.86;99150.19;2076947;83;21092;-76
2021/06/21 12:23:37;;;;;;;5.08;4.58;;;;;;;33.77;31.15;99146.77;2084035;83;21093;-75
2021/06/21 12:26:39;;;;;;;4.67;4.17;;;;;;;33.73;31.39;99134.27;2081648;83;21003;-74
2021/06/21 12:29:41;;;;;;;6.00;4.67;;;;;;;33.82;32.00;99129.45;2083360;83;21503;-74
2021/06/21 12:32:43;;;;;;;7.22;4.95;;;;;;;33.80;31.30;99117.20;2074744;83;21074;-76
2021/06/21 12:36:15;;;;;;;5.95;4.35;;;;;;;33.90;32.34;99118.08;2079211;83;21074;-76
2021/06/21 12:39:17;;;;;;;5.25;4.60;;;;;;;33.93;31.50;99118.20;2077917;83;21140;-75
2021/06/21 12:42:19;;;;;;;5.55;4.78;;;;;;;34.04;30.99;99129.57;2076288;83;21058;-75
2021/06/21 12:45:26;;;;;;;8.13;5.20;;;;;;;33.96;30.87;99120.84;2090665;83;20977;-77
2021/06/21 12:48:28;;;;;;;7.10;4.85;;;;;;;33.88;30.84;99128.65;2088660;83;21160;-75
2021/06/21 12:51:32;;;;;;;4.90;4.40;;;;;;;33.79;31.32;99143.08;2077843;84;21066;-75
2021/06/21 12:54:34;;;;;;;9.85;5.00;;;;;;;33.75;31.14;99148.48;2085875;83;21483;-76
2021/06/21 12:58:00;;;;;;;7.08;4.97;;;;;;;33.73;31.65;99157.64;2085093;83;21069;-76
2021/06/21 13:01:01;;;;;;;7.12;4.65;;;;;;;33.56;30.84;99155.13;2082892;83;21084;-76
2021/06/21 13:04:18;;;;;;;5.70;5.15;;;;;;;33.38;31.20;99167.69;2082439;83;21129;-76
2021/06/21 13:07:23;;;;;;;5.65;4.75;;;;;;;33.20;31.47;99168.48;2078993;83;21546;-77
2021/06/21 13:10:27;;;;;;;4.62;3.92;;;;;;;33.11;31.96;99171.08;2081153;83;21058;-75
2021/06/21 13:13:47;;;;;;;5.95;4.80;;;;;;;32.98;31.65;99161.98;2073662;84;21500;-76
2021/06/21 13:16:48;;;;;;;5.08;4.45;;;;;;;32.91;32.79;99158.97;2077580;83;21051;-77
2021/06/21 13:20:02;;;;;;;6.30;5.17;;;;;;;32.84;32.19;99166.41;2085001;83;21077;-77
2021/06/21 13:23:04;;;;;;;6.65;4.75;;;;;;;32.84;32.56;99159.53;2091285;83;21066;-75
2021/06/21 13:26:06;;;;;;;6.30;4.80;;;;;;;32.85;32.91;99152.89;2084540;83;21310;-76
2021/06/21 13:29:27;;;;;;;6.40;5.28;;;;;;;32.77;33.04;99155.15;2085214;83;21078;-77
2021/06/21 13:32:32;;;;;;;5.78;5.25;;;;;;;32.73;33.66;99159.73;2088905;83;21502;-74
2021/06/21 13:35:34;;;;;;;6.85;6.17;;;;;;;32.73;33.88;99165.22;2083711;83;21060;-76
2021/06/21 13:38:36;;;;;;;6.05;5.20;;;;;;;32.63;34.58;99167.00;2086895;83;21100;-75
2021/06/21 13:41:38;;;;;;;6.15;5.58;;;;;;;32.53;35.42;99181.95;2076835;83;21062;-76
2021/06/21 13:44:53;;;;;;;13.60;5.60;;;;;;;32.62;35.72;99192.86;2087974;83;22464;-76
2021/06/21 13:48:05;;;;;;;7.72;5.47;;;;;;;32.68;35.73;99195.63;2078652;83;21092;-75
2021/06/21 13:51:18;;;;;;;5.58;5.05;;;;;;;32.72;36.21;99203.41;2081082;83;21050;-75
2021/06/21 13:54:19;;;;;;;5.37;4.97;;;;;;;32.73;36.33;99216.02;2076376;83;21048;-76
2021/06/21 13:57:21;;;;;;;14.43;5.12;;;;;;;32.73;36.81;99216.83;2084267;83;21099;-76
2021/06/21 14:00:40;;;;;;;20.77;5.08;;;;;;;32.59;37.12;99243.18;2064838;83;21037;-74
2021/06/21 14:03:44;;;;;;;;;;;;;;;31.67;37.68;99252.02;2082787;83;21124;-77
2021/06/21 14:06:48;;;;;;;10.43;5.12;;;;;;;30.87;39.02;99291.96;2082824;83;20199;-78
2021/06/21 14:09:58;;;;;;;38.90;6.00;;;;;;;30.14;40.21;99301.98;2088359;83;21033;-77
2021/06/21 14:12:59;;;;;;;13.08;5.30;;;;;;;29.54;41.72;99318.84;2082734;83;20994;-79
2021/06/21 14:16:02;;;;;;;13.72;5.08;;;;;;;28.94;44.03;99330.34;2087195;83;22142;-75
2021/06/21 14:19:04;;;;;;;15.85;5.50;;;;;;;28.41;44.06;99352.75;2092215;83;21045;-78
2021/06/21 14:22:05;;;;;;;14.60;5.33;;;;;;;27.94;45.42;99350.64;2080932;83;21106;-77
2021/06/21 14:25:08;;;;;;;16.00;5.17;;;;;;;27.57;45.75;99346.89;2080582;83;21077;-77
2021/06/21 14:28:11;;;;;;;13.40;5.40;;;;;;;27.42;47.11;99349.84;2079468;83;21033;-78